sensor_id;sensor_type;location;lat;lon;timestamp;temperature;humidity
26035;DHT22;13809;48.632;11.576;2023-12-04T00:01:24;-5.30;35.10
26035;DHT22;13809;48.632;11.576;2023-12-04T00:06:29;-5.30;35.20
26035;DHT22;13809;48.632;11.576;2023-12-04T00:11:32;-5.30;35.40
26035;DHT22;13809;48.632;11.576;2023-12-04T00:16:37;-5.30;35.20
26035;DHT22;13809;48.632;11.576;2023-12-04T00:21:40;-5.30;35.20
26035;DHT22;13809;48.632;11.576;2023-12-04T00:26:43;-5.30;35.40
26035;DHT22;13809;48.632;11.576;2023-12-04T00:31:48;-5.30;35.50
26035;DHT22;13809;48.632;11.576;2023-12-04T00:36:51;-5.30;35.20
26035;DHT22;13809;48.632;11.576;2023-12-04T00:41:54;-5.40;35.00
26035;DHT22;13809;48.632;11.576;2023-12-04T00:46:59;-5.50;34.80
26035;DHT22;13809;48.632;11.576;2023-12-04T00:52:02;-5.50;35.10
26035;DHT22;13809;48.632;11.576;2023-12-04T00:57:06;-5.60;35.20
26035;DHT22;13809;48.632;11.576;2023-12-04T01:02:11;-5.60;35.20
26035;DHT22;13809;48.632;11.576;2023-12-04T01:07:15;-5.70;35.20
26035;DHT22;13809;48.632;11.576;2023-12-04T01:12:18;-5.50;35.40
26035;DHT22;13809;48.632;11.576;2023-12-04T01:17:23;-5.50;35.60
26035;DHT22;13809;48.632;11.576;2023-12-04T01:22:26;-5.50;36.20
26035;DHT22;13809;48.632;11.576;2023-12-04T01:27:29;-5.50;35.50
26035;DHT22;13809;48.632;11.576;2023-12-04T01:32:34;-5.40;35.50
26035;DHT22;13809;48.632;11.576;2023-12-04T01:37:37;-5.40;35.40
26035;DHT22;13809;48.632;11.576;2023-12-04T01:42:42;-5.40;35.40
26035;DHT22;13809;48.632;11.576;2023-12-04T01:47:47;-5.50;35.30
26035;DHT22;13809;48.632;11.576;2023-12-04T01:52:52;-5.40;35.30
26035;DHT22;13809;48.632;11.576;2023-12-04T01:57:56;-5.50;35.20
26035;DHT22;13809;48.632;11.576;2023-12-04T02:03:02;-5.40;35.30
26035;DHT22;13809;48.632;11.576;2023-12-04T02:08:05;-5.50;35.10
26035;DHT22;13809;48.632;11.576;2023-12-04T02:13:09;-5.50;35.20
26035;DHT22;13809;48.632;11.576;2023-12-04T02:18:14;-5.50;35.10
26035;DHT22;13809;48.632;11.576;2023-12-04T02:23:18;-5.50;35.20
26035;DHT22;13809;48.632;11.576;2023-12-04T02:28:23;-5.60;34.90
26035;DHT22;13809;48.632;11.576;2023-12-04T02:33:27;-5.60;34.80
26035;DHT22;13809;48.632;11.576;2023-12-04T02:38:31;-5.70;34.80
26035;DHT22;13809;48.632;11.576;2023-12-04T02:43:36;-5.70;34.90
26035;DHT22;13809;48.632;11.576;2023-12-04T02:48:39;-5.70;35.00
26035;DHT22;13809;48.632;11.576;2023-12-04T02:53:43;-5.80;34.80
26035;DHT22;13809;48.632;11.576;2023-12-04T02:58:47;-5.80;34.80
26035;DHT22;13809;48.632;11.576;2023-12-04T03:03:50;-5.80;34.80
26035;DHT22;13809;48.632;11.576;2023-12-04T03:08:54;-5.80;34.70
26035;DHT22;13809;48.632;11.576;2023-12-04T03:13:59;-5.90;34.60
26035;DHT22;13809;48.632;11.576;2023-12-04T03:19:03;-5.80;35.30
26035;DHT22;13809;48.632;11.576;2023-12-04T03:24:06;-6.00;34.50
26035;DHT22;13809;48.632;11.576;2023-12-04T03:29:12;-6.00;34.60
26035;DHT22;13809;48.632;11.576;2023-12-04T03:34:15;-6.10;34.60
26035;DHT22;13809;48.632;11.576;2023-12-04T03:39:18;-6.10;34.60
26035;DHT22;13809;48.632;11.576;2023-12-04T03:44:23;-6.10;34.60
26035;DHT22;13809;48.632;11.576;2023-12-04T03:49:26;-6.10;34.70
26035;DHT22;13809;48.632;11.576;2023-12-04T03:54:29;-6.10;34.80
26035;DHT22;13809;48.632;11.576;2023-12-04T03:59:34;-6.10;35.50
26035;DHT22;13809;48.632;11.576;2023-12-04T04:04:37;-6.10;34.60
26035;DHT22;13809;48.632;11.576;2023-12-04T04:09:40;-6.10;34.60
26035;DHT22;13809;48.632;11.576;2023-12-04T04:14:45;-6.20;34.50
26035;DHT22;13809;48.632;11.576;2023-12-04T04:19:48;-6.20;34.40
26035;DHT22;13809;48.632;11.576;2023-12-04T04:24:51;-6.30;34.40
26035;DHT22;13809;48.632;11.576;2023-12-04T04:29:57;-6.30;34.60
26035;DHT22;13809;48.632;11.576;2023-12-04T04:35:00;-6.30;34.50
26035;DHT22;13809;48.632;11.576;2023-12-04T04:40:05;-6.40;35.00
26035;DHT22;13809;48.632;11.576;2023-12-04T04:45:10;-6.40;34.60
26035;DHT22;13809;48.632;11.576;2023-12-04T04:50:13;-6.40;34.60
26035;DHT22;13809;48.632;11.576;2023-12-04T04:55:17;-6.40;34.70
26035;DHT22;13809;48.632;11.576;2023-12-04T05:00:41;-6.50;34.80
26035;DHT22;13809;48.632;11.576;2023-12-04T05:05:44;-6.40;34.80
26035;DHT22;13809;48.632;11.576;2023-12-04T05:10:47;-6.50;34.20
26035;DHT22;13809;48.632;11.576;2023-12-04T05:15:52;-6.60;34.10
26035;DHT22;13809;48.632;11.576;2023-12-04T05:20:55;-6.80;34.10
26035;DHT22;13809;48.632;11.576;2023-12-04T05:25:58;-6.80;34.30
26035;DHT22;13809;48.632;11.576;2023-12-04T05:31:04;-6.80;34.60
26035;DHT22;13809;48.632;11.576;2023-12-04T05:36:08;-6.80;34.80
26035;DHT22;13809;48.632;11.576;2023-12-04T05:41:11;-6.70;34.90
26035;DHT22;13809;48.632;11.576;2023-12-04T05:46:15;-6.70;35.00
26035;DHT22;13809;48.632;11.576;2023-12-04T05:51:19;-6.60;34.90
26035;DHT22;13809;48.632;11.576;2023-12-04T05:56:22;-6.60;35.10
26035;DHT22;13809;48.632;11.576;2023-12-04T06:01:26;-6.60;35.10
26035;DHT22;13809;48.632;11.576;2023-12-04T06:06:30;-6.50;35.00
26035;DHT22;13809;48.632;11.576;2023-12-04T06:11:33;-6.50;35.10
26035;DHT22;13809;48.632;11.576;2023-12-04T06:16:37;-6.50;35.10
26035;DHT22;13809;48.632;11.576;2023-12-04T06:21:40;-6.40;35.10
26035;DHT22;13809;48.632;11.576;2023-12-04T06:26:45;-6.50;36.10
26035;DHT22;13809;48.632;11.576;2023-12-04T06:31:52;-6.30;36.90
26035;DHT22;13809;48.632;11.576;2023-12-04T06:36:55;-6.20;36.60
26035;DHT22;13809;48.632;11.576;2023-12-04T06:41:59;-6.20;36.20
26035;DHT22;13809;48.632;11.576;2023-12-04T06:47:05;-6.20;35.80
26035;DHT22;13809;48.632;11.576;2023-12-04T06:52:10;-6.20;35.80
26035;DHT22;13809;48.632;11.576;2023-12-04T06:57:13;-6.10;36.70
26035;DHT22;13809;48.632;11.576;2023-12-04T07:02:18;-6.10;36.00
26035;DHT22;13809;48.632;11.576;2023-12-04T07:07:21;-6.00;36.00
26035;DHT22;13809;48.632;11.576;2023-12-04T07:12:25;-6.00;36.00
26035;DHT22;13809;48.632;11.576;2023-12-04T07:17:29;-5.90;38.20
26035;DHT22;13809;48.632;11.576;2023-12-04T07:22:33;-5.60;38.50
26035;DHT22;13809;48.632;11.576;2023-12-04T07:27:39;-5.40;37.60
26035;DHT22;13809;48.632;11.576;2023-12-04T07:32:44;-5.40;36.90
26035;DHT22;13809;48.632;11.576;2023-12-04T07:37:47;-5.40;36.50
26035;DHT22;13809;48.632;11.576;2023-12-04T07:42:51;-5.30;36.50
26035;DHT22;13809;48.632;11.576;2023-12-04T07:47:55;-5.30;36.30
26035;DHT22;13809;48.632;11.576;2023-12-04T07:52:59;-5.40;36.50
26035;DHT22;13809;48.632;11.576;2023-12-04T07:58:02;-5.30;36.70
26035;DHT22;13809;48.632;11.576;2023-12-04T08:03:06;-5.30;36.50
26035;DHT22;13809;48.632;11.576;2023-12-04T08:08:10;-5.20;36.30
26035;DHT22;13809;48.632;11.576;2023-12-04T08:13:13;-5.20;36.20
26035;DHT22;13809;48.632;11.576;2023-12-04T08:18:17;-5.20;36.30
26035;DHT22;13809;48.632;11.576;2023-12-04T08:23:21;-5.10;36.70
26035;DHT22;13809;48.632;11.576;2023-12-04T08:28:24;-5.00;37.00
26035;DHT22;13809;48.632;11.576;2023-12-04T08:33:28;-4.90;37.20
26035;DHT22;13809;48.632;11.576;2023-12-04T08:38:31;-4.80;37.40
26035;DHT22;13809;48.632;11.576;2023-12-04T08:43:35;-4.70;37.40
26035;DHT22;13809;48.632;11.576;2023-12-04T08:48:39;-4.50;37.70
26035;DHT22;13809;48.632;11.576;2023-12-04T08:53:43;-4.40;37.80
26035;DHT22;13809;48.632;11.576;2023-12-04T08:58:47;-4.30;37.60
26035;DHT22;13809;48.632;11.576;2023-12-04T09:03:55;-4.20;37.20
26035;DHT22;13809;48.632;11.576;2023-12-04T09:08:59;-4.10;36.50
26035;DHT22;13809;48.632;11.576;2023-12-04T09:14:10;-4.10;36.60
26035;DHT22;13809;48.632;11.576;2023-12-04T09:19:16;-4.10;37.20
26035;DHT22;13809;48.632;11.576;2023-12-04T09:24:19;-4.10;37.90
26035;DHT22;13809;48.632;11.576;2023-12-04T09:29:22;-4.00;37.90
26035;DHT22;13809;48.632;11.576;2023-12-04T09:34:27;-3.80;37.90
26035;DHT22;13809;48.632;11.576;2023-12-04T09:39:31;-3.70;37.70
26035;DHT22;13809;48.632;11.576;2023-12-04T09:44:34;-3.60;37.70
26035;DHT22;13809;48.632;11.576;2023-12-04T09:49:40;-3.50;37.90
26035;DHT22;13809;48.632;11.576;2023-12-04T09:54:44;-3.30;38.00
26035;DHT22;13809;48.632;11.576;2023-12-04T09:59:47;-3.20;38.20
26035;DHT22;13809;48.632;11.576;2023-12-04T10:04:52;-2.90;38.20
26035;DHT22;13809;48.632;11.576;2023-12-04T10:09:56;-2.90;38.20
26035;DHT22;13809;48.632;11.576;2023-12-04T10:15:06;-2.80;38.40
26035;DHT22;13809;48.632;11.576;2023-12-04T10:20:12;-2.70;38.50
26035;DHT22;13809;48.632;11.576;2023-12-04T10:25:20;-2.50;38.70
26035;DHT22;13809;48.632;11.576;2023-12-04T10:30:25;-2.40;38.70
26035;DHT22;13809;48.632;11.576;2023-12-04T10:35:31;-2.20;38.70
26035;DHT22;13809;48.632;11.576;2023-12-04T10:40:36;-2.00;38.60
26035;DHT22;13809;48.632;11.576;2023-12-04T10:45:40;-2.00;38.40
26035;DHT22;13809;48.632;11.576;2023-12-04T10:50:46;-1.90;38.50
26035;DHT22;13809;48.632;11.576;2023-12-04T10:55:54;-1.80;38.80
26035;DHT22;13809;48.632;11.576;2023-12-04T11:01:00;-1.70;39.00
26035;DHT22;13809;48.632;11.576;2023-12-04T11:06:10;-1.60;38.90
26035;DHT22;13809;48.632;11.576;2023-12-04T11:11:21;-1.50;38.40
26035;DHT22;13809;48.632;11.576;2023-12-04T11:16:29;-1.50;38.30
26035;DHT22;13809;48.632;11.576;2023-12-04T11:21:37;-1.50;38.30
26035;DHT22;13809;48.632;11.576;2023-12-04T11:26:42;-1.50;38.30
26035;DHT22;13809;48.632;11.576;2023-12-04T11:31:47;-1.50;38.10
26035;DHT22;13809;48.632;11.576;2023-12-04T11:36:52;-1.50;38.10
26035;DHT22;13809;48.632;11.576;2023-12-04T11:41:58;-1.50;38.90
26035;DHT22;13809;48.632;11.576;2023-12-04T11:47:05;-1.40;38.50
26035;DHT22;13809;48.632;11.576;2023-12-04T11:52:09;-1.40;38.60
26035;DHT22;13809;48.632;11.576;2023-12-04T11:57:24;-1.30;38.50
26035;DHT22;13809;48.632;11.576;2023-12-04T12:02:28;-1.20;38.60
26035;DHT22;13809;48.632;11.576;2023-12-04T12:07:52;-1.20;38.80
26035;DHT22;13809;48.632;11.576;2023-12-04T12:12:57;-1.00;39.10
26035;DHT22;13809;48.632;11.576;2023-12-04T12:18:00;-0.90;39.10
26035;DHT22;13809;48.632;11.576;2023-12-04T12:23:05;-0.80;39.10
26035;DHT22;13809;48.632;11.576;2023-12-04T12:28:10;-0.80;38.90
26035;DHT22;13809;48.632;11.576;2023-12-04T12:33:13;-0.70;38.90
26035;DHT22;13809;48.632;11.576;2023-12-04T12:38:18;-0.60;39.10
26035;DHT22;13809;48.632;11.576;2023-12-04T12:43:22;-0.60;38.90
26035;DHT22;13809;48.632;11.576;2023-12-04T12:48:27;-0.50;39.00
26035;DHT22;13809;48.632;11.576;2023-12-04T12:53:36;-0.50;38.90
26035;DHT22;13809;48.632;11.576;2023-12-04T12:58:41;-0.50;38.90
26035;DHT22;13809;48.632;11.576;2023-12-04T13:03:45;-0.40;38.90
26035;DHT22;13809;48.632;11.576;2023-12-04T13:08:51;-0.40;38.90
26035;DHT22;13809;48.632;11.576;2023-12-04T13:13:54;-0.40;39.00
26035;DHT22;13809;48.632;11.576;2023-12-04T13:18:59;-0.30;39.10
26035;DHT22;13809;48.632;11.576;2023-12-04T13:24:04;-0.20;39.30
26035;DHT22;13809;48.632;11.576;2023-12-04T13:29:10;-0.10;39.20
26035;DHT22;13809;48.632;11.576;2023-12-04T13:34:13;-0.10;39.10
26035;DHT22;13809;48.632;11.576;2023-12-04T13:39:18;-0.10;39.10
26035;DHT22;13809;48.632;11.576;2023-12-04T13:44:29;0.00;39.30
26035;DHT22;13809;48.632;11.576;2023-12-04T13:49:35;0.00;39.20
26035;DHT22;13809;48.632;11.576;2023-12-04T13:54:39;0.10;39.10
26035;DHT22;13809;48.632;11.576;2023-12-04T13:59:49;0.20;38.90
26035;DHT22;13809;48.632;11.576;2023-12-04T14:04:52;0.10;38.80
26035;DHT22;13809;48.632;11.576;2023-12-04T14:09:58;0.10;38.70
26035;DHT22;13809;48.632;11.576;2023-12-04T14:15:02;0.10;38.70
26035;DHT22;13809;48.632;11.576;2023-12-04T14:20:07;0.10;38.70
26035;DHT22;13809;48.632;11.576;2023-12-04T14:25:16;0.10;38.80
26035;DHT22;13809;48.632;11.576;2023-12-04T14:30:19;0.20;38.90
26035;DHT22;13809;48.632;11.576;2023-12-04T14:35:22;0.30;39.00
26035;DHT22;13809;48.632;11.576;2023-12-04T14:40:27;0.30;38.90
26035;DHT22;13809;48.632;11.576;2023-12-04T14:45:31;0.30;38.90
26035;DHT22;13809;48.632;11.576;2023-12-04T14:50:35;0.40;40.90
26035;DHT22;13809;48.632;11.576;2023-12-04T14:55:41;0.50;41.10
26035;DHT22;13809;48.632;11.576;2023-12-04T15:01:01;0.70;40.50
26035;DHT22;13809;48.632;11.576;2023-12-04T15:06:31;0.70;39.80
26035;DHT22;13809;48.632;11.576;2023-12-04T15:11:45;0.70;39.20
26035;DHT22;13809;48.632;11.576;2023-12-04T15:17:16;0.70;38.50
26035;DHT22;13809;48.632;11.576;2023-12-04T15:22:31;0.60;39.10
26035;DHT22;13809;48.632;11.576;2023-12-04T15:27:36;0.50;39.30
26035;DHT22;13809;48.632;11.576;2023-12-04T15:32:40;0.40;39.70
26035;DHT22;13809;48.632;11.576;2023-12-04T15:37:43;0.40;38.60
26035;DHT22;13809;48.632;11.576;2023-12-04T15:42:48;0.30;38.30
26035;DHT22;13809;48.632;11.576;2023-12-04T15:47:51;0.00;38.10
26035;DHT22;13809;48.632;11.576;2023-12-04T15:52:56;-0.20;38.50
26035;DHT22;13809;48.632;11.576;2023-12-04T15:58:00;-0.20;38.50
26035;DHT22;13809;48.632;11.576;2023-12-04T16:03:04;-0.40;38.50
26035;DHT22;13809;48.632;11.576;2023-12-04T16:08:07;-0.50;38.40
26035;DHT22;13809;48.632;11.576;2023-12-04T16:13:12;-0.60;38.30
26035;DHT22;13809;48.632;11.576;2023-12-04T16:18:17;-0.80;38.50
26035;DHT22;13809;48.632;11.576;2023-12-04T16:23:20;-0.70;39.90
26035;DHT22;13809;48.632;11.576;2023-12-04T16:28:26;-0.60;40.90
26035;DHT22;13809;48.632;11.576;2023-12-04T16:33:29;-0.40;43.40
26035;DHT22;13809;48.632;11.576;2023-12-04T16:38:33;0.10;44.10
26035;DHT22;13809;48.632;11.576;2023-12-04T16:43:38;0.40;41.50
26035;DHT22;13809;48.632;11.576;2023-12-04T16:48:41;0.50;39.70
26035;DHT22;13809;48.632;11.576;2023-12-04T16:53:46;0.40;39.30
26035;DHT22;13809;48.632;11.576;2023-12-04T16:58:50;0.30;40.10
26035;DHT22;13809;48.632;11.576;2023-12-04T17:03:54;0.30;40.60
26035;DHT22;13809;48.632;11.576;2023-12-04T17:08:57;0.40;40.20
26035;DHT22;13809;48.632;11.576;2023-12-04T17:14:02;0.40;39.50
26035;DHT22;13809;48.632;11.576;2023-12-04T17:19:06;0.40;39.10
26035;DHT22;13809;48.632;11.576;2023-12-04T17:24:10;0.30;38.90
26035;DHT22;13809;48.632;11.576;2023-12-04T17:35:36;0.20;38.80
26035;DHT22;13809;48.632;11.576;2023-12-04T17:40:39;0.10;39.40
26035;DHT22;13809;48.632;11.576;2023-12-04T17:45:43;0.10;39.20
26035;DHT22;13809;48.632;11.576;2023-12-04T17:50:48;0.10;39.00
26035;DHT22;13809;48.632;11.576;2023-12-04T17:55:51;0.10;38.70
26035;DHT22;13809;48.632;11.576;2023-12-04T18:00:55;0.10;38.90
26035;DHT22;13809;48.632;11.576;2023-12-04T18:06:00;0.00;39.00
26035;DHT22;13809;48.632;11.576;2023-12-04T18:11:03;0.10;39.00
26035;DHT22;13809;48.632;11.576;2023-12-04T18:16:08;0.00;38.80
26035;DHT22;13809;48.632;11.576;2023-12-04T18:21:13;0.00;38.60
26035;DHT22;13809;48.632;11.576;2023-12-04T18:26:16;-0.10;38.40
26035;DHT22;13809;48.632;11.576;2023-12-04T18:31:21;-0.10;38.60
26035;DHT22;13809;48.632;11.576;2023-12-04T18:36:28;-0.20;38.50
26035;DHT22;13809;48.632;11.576;2023-12-04T18:41:32;-0.20;38.50
26035;DHT22;13809;48.632;11.576;2023-12-04T18:46:36;-0.30;38.40
26035;DHT22;13809;48.632;11.576;2023-12-04T18:51:44;-0.40;38.50
26035;DHT22;13809;48.632;11.576;2023-12-04T18:56:47;-0.40;38.80
26035;DHT22;13809;48.632;11.576;2023-12-04T19:01:50;-0.40;38.90
26035;DHT22;13809;48.632;11.576;2023-12-04T19:06:56;-0.40;38.80
26035;DHT22;13809;48.632;11.576;2023-12-04T19:11:59;-0.40;38.80
26035;DHT22;13809;48.632;11.576;2023-12-04T19:17:02;-0.40;38.70
26035;DHT22;13809;48.632;11.576;2023-12-04T19:22:07;-0.40;38.30
26035;DHT22;13809;48.632;11.576;2023-12-04T19:27:10;-0.50;38.20
26035;DHT22;13809;48.632;11.576;2023-12-04T19:32:13;-0.50;38.30
26035;DHT22;13809;48.632;11.576;2023-12-04T19:37:23;-0.60;38.50
26035;DHT22;13809;48.632;11.576;2023-12-04T19:42:27;-0.60;38.40
26035;DHT22;13809;48.632;11.576;2023-12-04T19:47:30;-0.60;38.70
26035;DHT22;13809;48.632;11.576;2023-12-04T19:52:34;-0.60;38.90
26035;DHT22;13809;48.632;11.576;2023-12-04T19:57:38;-0.50;38.90
26035;DHT22;13809;48.632;11.576;2023-12-04T20:02:41;-0.50;38.90
26035;DHT22;13809;48.632;11.576;2023-12-04T20:07:45;-0.50;38.70
26035;DHT22;13809;48.632;11.576;2023-12-04T20:12:51;-0.50;38.50
26035;DHT22;13809;48.632;11.576;2023-12-04T20:17:54;-0.50;38.40
26035;DHT22;13809;48.632;11.576;2023-12-04T20:22:59;-0.50;38.40
26035;DHT22;13809;48.632;11.576;2023-12-04T20:28:02;-0.60;38.50
26035;DHT22;13809;48.632;11.576;2023-12-04T20:33:05;-0.60;38.70
26035;DHT22;13809;48.632;11.576;2023-12-04T20:38:10;-0.60;38.70
26035;DHT22;13809;48.632;11.576;2023-12-04T20:43:15;-0.60;38.80
26035;DHT22;13809;48.632;11.576;2023-12-04T20:48:18;-0.60;38.90
26035;DHT22;13809;48.632;11.576;2023-12-04T20:53:24;-0.50;39.10
26035;DHT22;13809;48.632;11.576;2023-12-04T20:58:28;-0.50;39.10
26035;DHT22;13809;48.632;11.576;2023-12-04T21:03:31;-0.50;39.20
26035;DHT22;13809;48.632;11.576;2023-12-04T21:08:36;-0.40;39.10
26035;DHT22;13809;48.632;11.576;2023-12-04T21:13:39;-0.40;38.90
26035;DHT22;13809;48.632;11.576;2023-12-04T21:18:42;-0.40;38.90
26035;DHT22;13809;48.632;11.576;2023-12-04T21:23:48;-0.40;39.00
26035;DHT22;13809;48.632;11.576;2023-12-04T21:28:51;-0.40;39.00
26035;DHT22;13809;48.632;11.576;2023-12-04T21:33:55;-0.30;39.10
26035;DHT22;13809;48.632;11.576;2023-12-04T21:39:00;-0.30;39.20
26035;DHT22;13809;48.632;11.576;2023-12-04T21:44:03;-0.30;39.10
26035;DHT22;13809;48.632;11.576;2023-12-04T21:49:07;-0.30;39.30
26035;DHT22;13809;48.632;11.576;2023-12-04T21:54:12;-0.30;39.30
26035;DHT22;13809;48.632;11.576;2023-12-04T21:59:15;-0.20;39.40
26035;DHT22;13809;48.632;11.576;2023-12-04T22:04:30;-0.20;39.40
26035;DHT22;13809;48.632;11.576;2023-12-04T22:09:34;-0.20;39.30
26035;DHT22;13809;48.632;11.576;2023-12-04T22:14:38;-0.20;39.40
26035;DHT22;13809;48.632;11.576;2023-12-04T22:19:42;-0.20;39.30
26035;DHT22;13809;48.632;11.576;2023-12-04T22:24:46;-0.30;39.50
26035;DHT22;13809;48.632;11.576;2023-12-04T22:29:50;-0.30;39.80
26035;DHT22;13809;48.632;11.576;2023-12-04T22:34:53;-0.30;39.90
26035;DHT22;13809;48.632;11.576;2023-12-04T22:39:58;-0.30;40.10
26035;DHT22;13809;48.632;11.576;2023-12-04T22:45:02;-0.30;40.30
26035;DHT22;13809;48.632;11.576;2023-12-04T22:50:06;-0.20;40.30
26035;DHT22;13809;48.632;11.576;2023-12-04T23:01:33;-0.10;40.50
26035;DHT22;13809;48.632;11.576;2023-12-04T23:06:37;0.00;40.40
26035;DHT22;13809;48.632;11.576;2023-12-04T23:11:40;0.00;40.40
26035;DHT22;13809;48.632;11.576;2023-12-04T23:16:45;0.10;40.50
26035;DHT22;13809;48.632;11.576;2023-12-04T23:21:48;0.20;40.70
26035;DHT22;13809;48.632;11.576;2023-12-04T23:26:51;0.20;40.60
26035;DHT22;13809;48.632;11.576;2023-12-04T23:31:56;0.30;40.60
26035;DHT22;13809;48.632;11.576;2023-12-04T23:36:59;0.40;40.70
26035;DHT22;13809;48.632;11.576;2023-12-04T23:42:03;0.40;40.70
26035;DHT22;13809;48.632;11.576;2023-12-04T23:47:07;0.50;40.70
26035;DHT22;13809;48.632;11.576;2023-12-04T23:52:10;0.60;40.90
26035;DHT22;13809;48.632;11.576;2023-12-04T23:57:14;0.60;40.70
